Hovedside
METAR-TAF:

METAR-TAF

Lufthavner :

Trondheim lufthavn. Værnes

Trondheim, Norge

breddegrad: 63-28N, lengdegrad: 010-56E, høyde over havet: 1 m

Gjeldene værobservasjon

Denne rapporten ble laget for 32 minutter siden, klokken 16:20 UTC
Vind 10 kt fra Øst
Temperatur 14°C
Luftfuktighet 77%
Trykk 1014 hPa
Sikt 10 km eller mer
ingen skyer under 1500 m og ingen bygeskyer

METAR: ENVA 271620Z 08010KT CAVOK 14/10 Q1014 RMK WIND 670FT 11010KT

Tid: 18:52 (16:52 UTC)

Varsel

Varsel gyldig fra 27. klokken 12 UTC til 28. klokken 12 UTC
Vind 8 kt fra Øst
Sikt 10 km eller mer
Spredte skyer i en høyde av 6000 ft
Sannsynlighet 30% :
Midlertidig
fra 27. klokken 12 UTC til 27. klokken 18 UTC
Vind 15 kt fra Sør-sørøst med vindkast opp mot 25 kt

TAF: ENVA 2712/2812 10008KT 9999 SCT060 PROB30 TEMPO 2712/2718 16015G25KT

Værobservasjoner og værvarsel for over 4000 flyplasser (METAR- og TAF-rapporter).

Tilgjengelige stasjoner er representert av de røde og gule prikkene på kartet.

Hold musepekeren over prikken for å se navnet på stasjonen.

Klikk så for å se værobservasjoner og -varsler.

For å forandre kartet kan du klikke på den grønne knappen med svart kryss for å zoome inn, på den grønne knappen med strek for å zoome ut, eller på de grønne pilene for å se tilstøtende kart.


METAR-TAF: